Jackson Junction, Iowa
Current Conditions -  °F | °C
As of 1:35 AM on Sunday 26 Oct 2014 (Local Time) from KDEH Reporting Station
Clear Clear  
Wind Chill: 41°   Ceiling: Unl
Heat Index: 45°   Visibility: 10mi
Dew Point: 28°   Wind: 6mph
Humidity: 53%   Direction: 350°N
Pressure: 30.04"   Gusts: NA
Location:  43.0382°N, 92.0219°W
Report Text: KDEH 260635Z AUTO 35005KT 10SM CLR 07/M02 A3004 RMK AO2
Loading
Personal Weather Stations






























Interactive Weather Map
Tropical Storm Tracking
New forecast layout! Learn more

10-Day Weather Forecast

Advertisements
Track Severe Weather on mobile